createdAt,value
2023-05-07T00:01:31.291Z,53.10
2023-05-07T00:03:58.257Z,53.40
2023-05-07T00:06:25.167Z,53.20
2023-05-07T00:08:51.976Z,53.30
2023-05-07T00:11:18.763Z,53.50
2023-05-07T00:13:45.539Z,53.50
2023-05-07T00:16:12.378Z,53.60
2023-05-07T00:18:39.309Z,54.20
2023-05-07T00:21:06.225Z,54.40
2023-05-07T00:23:33.078Z,54.50
2023-05-07T00:25:59.851Z,54.60
2023-05-07T00:28:26.661Z,54.60
2023-05-07T00:30:54.039Z,54.70
2023-05-07T00:33:21.869Z,54.90
2023-05-07T00:35:49.290Z,54.90
2023-05-07T00:38:16.198Z,54.90
2023-05-07T00:40:43.009Z,54.90
2023-05-07T00:43:09.984Z,55.00
2023-05-07T00:45:36.957Z,55.00
2023-05-07T00:48:04.523Z,55.00
2023-05-07T00:50:32.021Z,55.00
2023-05-07T00:53:00.237Z,55.00
2023-05-07T00:55:27.460Z,55.20
2023-05-07T00:57:54.583Z,55.10
2023-05-07T01:00:22.096Z,55.10
2023-05-07T01:02:49.160Z,55.20
2023-05-07T01:05:19.416Z,55.30
2023-05-07T01:07:47.382Z,55.40
2023-05-07T01:10:15.007Z,55.30
2023-05-07T01:12:42.686Z,55.30
2023-05-07T01:15:10.721Z,55.40
2023-05-07T01:17:38.756Z,55.40
2023-05-07T01:20:08.654Z,55.40
2023-05-07T01:22:37.773Z,55.40
2023-05-07T01:25:06.027Z,55.40
2023-05-07T01:27:34.644Z,55.40
2023-05-07T01:30:02.001Z,55.40
2023-05-07T01:32:34.580Z,55.50
2023-05-07T01:35:03.431Z,55.70
2023-05-07T01:37:30.764Z,55.70
2023-05-07T01:39:58.419Z,55.80
2023-05-07T01:42:25.542Z,55.80
2023-05-07T01:44:52.420Z,55.90
2023-05-07T01:47:20.057Z,55.90
2023-05-07T01:49:46.907Z,56.00
2023-05-07T01:52:14.144Z,56.10
2023-05-07T01:54:40.934Z,56.20
2023-05-07T01:57:07.953Z,56.20
2023-05-07T01:59:34.894Z,56.40
2023-05-07T02:02:01.847Z,56.30
2023-05-07T02:04:29.282Z,57.10
2023-05-07T02:06:56.841Z,55.80
2023-05-07T02:09:24.547Z,56.40
2023-05-07T02:11:52.192Z,56.40
2023-05-07T02:14:21.649Z,56.40
2023-05-07T02:16:48.709Z,56.50
2023-05-07T02:19:16.607Z,56.50
2023-05-07T02:25:57.486Z,57.10
2023-05-07T02:28:24.755Z,56.40
2023-05-07T02:30:56.810Z,56.50
2023-05-07T02:33:23.641Z,56.60
2023-05-07T02:35:50.600Z,56.70
2023-05-07T02:38:17.430Z,56.70
2023-05-07T02:40:44.766Z,56.70
2023-05-07T02:43:11.570Z,56.70
2023-05-07T02:45:41.655Z,56.80
2023-05-07T02:48:09.309Z,56.70
2023-05-07T02:50:36.289Z,56.70
2023-05-07T02:53:03.340Z,56.70
2023-05-07T02:55:30.559Z,56.80
2023-05-07T02:57:57.388Z,56.90
2023-05-07T03:00:25.151Z,57.00
2023-05-07T03:03:01.960Z,57.10
2023-05-07T03:05:29.265Z,57.00
2023-05-07T03:07:56.024Z,56.50
2023-05-07T03:10:23.138Z,56.90
2023-05-07T03:12:50.030Z,56.90
2023-05-07T03:15:18.229Z,56.90
2023-05-07T03:17:45.080Z,56.90
2023-05-07T03:20:12.552Z,56.90
2023-05-07T03:22:40.676Z,56.90
2023-05-07T03:25:08.492Z,56.90
2023-05-07T03:27:35.398Z,56.90
2023-05-07T03:30:02.506Z,56.80
2023-05-07T03:32:29.615Z,56.70
2023-05-07T03:34:56.904Z,56.80
2023-05-07T03:37:23.767Z,56.80
2023-05-07T03:39:50.981Z,56.70
2023-05-07T03:42:18.536Z,56.80
2023-05-07T03:44:46.346Z,56.80
2023-05-07T03:47:14.326Z,56.90
2023-05-07T03:49:41.202Z,56.80
2023-05-07T03:52:08.045Z,56.70
2023-05-07T03:54:35.083Z,56.70
2023-05-07T03:57:02.724Z,56.70
2023-05-07T03:59:29.695Z,56.20
2023-05-07T04:01:57.346Z,56.70
2023-05-07T04:04:26.199Z,56.70
2023-05-07T04:06:53.137Z,57.10
2023-05-07T04:09:19.953Z,56.70
2023-05-07T04:11:48.308Z,56.60
2023-05-07T04:14:15.329Z,56.70
2023-05-07T04:16:42.150Z,56.60
2023-05-07T04:19:09.369Z,56.50
2023-05-07T04:21:37.028Z,56.50
2023-05-07T04:24:04.928Z,56.60
2023-05-07T04:26:32.581Z,56.60
2023-05-07T04:29:00.221Z,56.60
2023-05-07T04:31:32.847Z,56.50
2023-05-07T04:33:59.830Z,56.50
2023-05-07T04:36:30.193Z,56.60
2023-05-07T04:39:04.540Z,56.60
2023-05-07T04:41:31.537Z,56.70
2023-05-07T04:44:00.041Z,56.30
2023-05-07T04:46:29.744Z,56.80
2023-05-07T04:48:58.188Z,56.70
2023-05-07T04:51:25.043Z,56.70
2023-05-07T04:53:51.855Z,56.80
2023-05-07T04:56:18.643Z,56.70
2023-05-07T04:58:47.104Z,56.70
2023-05-07T05:01:15.428Z,56.80
2023-05-07T05:03:42.906Z,56.70
2023-05-07T05:06:10.697Z,56.80
2023-05-07T05:08:37.474Z,56.80
2023-05-07T05:11:05.549Z,56.90
2023-05-07T05:13:34.742Z,56.90
2023-05-07T05:16:07.938Z,56.90
2023-05-07T05:18:34.853Z,56.90
2023-05-07T05:21:01.777Z,56.90
2023-05-07T05:23:29.376Z,56.80
2023-05-07T05:25:58.532Z,56.70
2023-05-07T05:28:28.684Z,56.70
2023-05-07T05:30:55.906Z,56.70
2023-05-07T05:33:24.395Z,56.50
2023-05-07T05:35:51.774Z,56.40
2023-05-07T05:38:18.633Z,56.40
2023-05-07T05:40:46.254Z,56.40
2023-05-07T05:43:13.158Z,56.40
2023-05-07T05:45:40.000Z,56.40
2023-05-07T05:48:07.229Z,56.30
2023-05-07T05:50:34.121Z,56.40
2023-05-07T05:53:01.415Z,56.30
2023-05-07T05:55:29.341Z,54.90
2023-05-07T05:57:56.219Z,56.40
2023-05-07T06:00:23.707Z,56.40
2023-05-07T06:03:00.774Z,56.40
2023-05-07T06:05:28.739Z,56.20
2023-05-07T06:07:57.766Z,56.20
2023-05-07T06:10:26.865Z,56.20
2023-05-07T06:12:54.056Z,56.20
2023-05-07T06:15:21.803Z,56.20
2023-05-07T06:17:50.137Z,56.10
2023-05-07T06:20:17.589Z,56.20
2023-05-07T06:22:45.321Z,56.70
2023-05-07T06:25:13.559Z,55.90
2023-05-07T06:27:41.140Z,55.90
2023-05-07T06:30:09.999Z,56.00
2023-05-07T06:32:39.607Z,55.80
2023-05-07T06:35:07.051Z,55.80
2023-05-07T06:37:39.238Z,55.70
2023-05-07T06:40:08.391Z,55.70
2023-05-07T06:42:38.772Z,55.70
2023-05-07T06:45:24.970Z,55.60
2023-05-07T06:47:53.579Z,55.50
2023-05-07T06:50:20.515Z,55.50
2023-05-07T06:52:47.500Z,55.60
2023-05-07T06:55:14.369Z,55.60
2023-05-07T06:57:41.275Z,55.60
2023-05-07T07:00:10.248Z,55.60
2023-05-07T07:02:46.103Z,55.60
2023-05-07T07:05:15.209Z,55.50
2023-05-07T07:07:42.033Z,55.60
2023-05-07T07:10:09.475Z,55.60
2023-05-07T07:12:36.644Z,55.50
2023-05-07T07:15:04.039Z,55.60
2023-05-07T07:17:31.036Z,55.40
2023-05-07T07:19:57.839Z,55.20
2023-05-07T07:22:24.632Z,55.20
2023-05-07T07:24:52.213Z,55.30
2023-05-07T07:27:19.118Z,55.30
2023-05-07T07:29:46.055Z,55.30
2023-05-07T07:32:13.030Z,55.10
2023-05-07T07:34:40.444Z,55.10
2023-05-07T07:37:07.735Z,55.00
2023-05-07T07:39:38.719Z,55.10
2023-05-07T07:42:07.040Z,54.90
2023-05-07T07:44:34.100Z,55.00
2023-05-07T07:47:06.492Z,54.90
2023-05-07T07:49:33.794Z,54.90
2023-05-07T07:52:04.544Z,54.80
2023-05-07T07:54:33.435Z,54.80
2023-05-07T07:57:00.896Z,54.80
2023-05-07T07:59:28.472Z,54.70
2023-05-07T08:01:57.824Z,54.70
2023-05-07T08:04:26.971Z,54.70
2023-05-07T08:06:56.034Z,54.70
2023-05-07T08:09:23.775Z,54.60
2023-05-07T08:11:52.053Z,54.50
2023-05-07T08:14:19.089Z,54.40
2023-05-07T08:16:48.125Z,54.30
2023-05-07T08:19:15.143Z,54.30
2023-05-07T08:21:42.470Z,54.10
2023-05-07T08:24:11.418Z,54.10
2023-05-07T08:26:40.316Z,54.00
2023-05-07T08:29:08.832Z,53.90
2023-05-07T08:31:35.682Z,54.10
2023-05-07T08:34:02.568Z,54.00
2023-05-07T08:36:29.666Z,53.90
2023-05-07T08:38:57.184Z,53.90
2023-05-07T08:41:24.245Z,53.80
2023-05-07T08:43:52.090Z,53.80
2023-05-07T08:46:23.236Z,53.80
2023-05-07T08:48:54.524Z,53.80
2023-05-07T08:51:22.449Z,53.80
2023-05-07T08:53:51.165Z,53.60
2023-05-07T08:56:24.209Z,53.40
2023-05-07T08:58:52.815Z,54.20
2023-05-07T09:01:19.878Z,53.60
2023-05-07T09:03:53.039Z,53.50
2023-05-07T09:06:20.706Z,53.30
2023-05-07T09:08:55.562Z,53.10
2023-05-07T09:11:25.818Z,53.00
2023-05-07T09:13:56.781Z,53.10
2023-05-07T09:16:25.825Z,52.80
2023-05-07T09:18:53.826Z,52.60
2023-05-07T09:21:22.226Z,52.50
2023-05-07T09:23:55.132Z,52.30
2023-05-07T09:26:26.379Z,52.10
2023-05-07T09:28:53.622Z,52.00
2023-05-07T09:31:24.291Z,52.00
2023-05-07T09:33:51.518Z,51.80
2023-05-07T09:36:19.494Z,51.70
2023-05-07T09:38:46.692Z,51.70
2023-05-07T09:41:14.292Z,51.70
2023-05-07T09:43:55.379Z,51.70
2023-05-07T09:46:33.231Z,51.40
2023-05-07T09:49:07.821Z,51.30
2023-05-07T09:51:42.607Z,51.60
2023-05-07T09:54:11.034Z,51.40
2023-05-07T09:56:42.931Z,51.40
2023-05-07T09:59:16.758Z,51.30
2023-05-07T10:01:46.130Z,51.00
2023-05-07T10:04:14.934Z,51.00
2023-05-07T10:06:44.627Z,51.00
2023-05-07T10:09:13.021Z,50.90
2023-05-07T10:11:41.499Z,50.90
2023-05-07T10:14:08.993Z,50.90
2023-05-07T10:16:38.077Z,50.80
2023-05-07T10:19:13.307Z,50.70
2023-05-07T10:21:56.383Z,50.40
2023-05-07T10:24:30.091Z,50.30
2023-05-07T10:27:01.471Z,50.50
2023-05-07T10:29:28.614Z,50.40
2023-05-07T10:32:29.695Z,50.40
2023-05-07T10:35:01.170Z,49.90
2023-05-07T10:37:28.440Z,49.70
2023-05-07T10:39:58.116Z,50.40
2023-05-07T10:42:26.798Z,49.70
2023-05-07T10:44:55.843Z,49.70
2023-05-07T10:47:27.398Z,49.70
2023-05-07T10:50:07.506Z,49.90
2023-05-07T10:52:39.033Z,49.70
2023-05-07T10:55:19.854Z,49.80
2023-05-07T10:57:57.518Z,49.70
2023-05-07T11:03:03.403Z,49.70
2023-05-07T11:05:38.506Z,49.90
2023-05-07T11:08:20.789Z,49.70
2023-05-07T11:10:57.114Z,49.50
2023-05-07T11:13:51.323Z,49.60
2023-05-07T11:16:37.817Z,49.70
2023-05-07T11:19:53.377Z,49.40
2023-05-07T11:22:37.272Z,49.20
2023-05-07T11:25:19.918Z,49.60
2023-05-07T11:27:51.356Z,49.50
2023-05-07T11:30:22.113Z,49.60
2023-05-07T11:32:49.839Z,49.60
2023-05-07T11:35:18.929Z,49.30
2023-05-07T11:37:49.114Z,49.20
2023-05-07T11:40:16.600Z,49.30
2023-05-07T11:42:44.263Z,49.10
2023-05-07T11:45:12.310Z,48.90
2023-05-07T11:47:39.739Z,48.60
2023-05-07T11:50:11.559Z,48.40
2023-05-07T11:52:40.217Z,48.30
2023-05-07T11:55:09.058Z,47.90
2023-05-07T11:57:36.304Z,46.60
2023-05-07T12:00:05.650Z,47.70
2023-05-07T12:02:43.202Z,47.50
2023-05-07T12:05:10.912Z,48.10
2023-05-07T12:07:38.015Z,47.10
2023-05-07T12:10:08.232Z,47.00
2023-05-07T12:12:47.153Z,46.70
2023-05-07T12:15:18.143Z,46.00
2023-05-07T12:17:45.483Z,45.80
2023-05-07T12:20:12.632Z,45.80
2023-05-07T12:22:39.485Z,45.50
2023-05-07T12:25:07.729Z,45.20
2023-05-07T12:27:39.054Z,45.50
2023-05-07T12:30:06.727Z,44.30
2023-05-07T12:32:37.531Z,44.30
2023-05-07T12:35:07.042Z,44.40
2023-05-07T12:37:33.921Z,44.10
2023-05-07T12:40:08.604Z,44.10
2023-05-07T12:42:40.833Z,43.20
2023-05-07T12:45:11.535Z,43.30
2023-05-07T12:47:38.805Z,43.10
2023-05-07T12:50:09.075Z,43.00
2023-05-07T12:52:36.038Z,42.80
2023-05-07T12:55:07.711Z,43.20
2023-05-07T12:57:43.428Z,43.10
2023-05-07T13:00:10.862Z,42.70
2023-05-07T13:02:42.476Z,43.20
2023-05-07T13:05:09.863Z,42.40
2023-05-07T13:07:38.093Z,42.70
2023-05-07T13:10:05.978Z,42.50
2023-05-07T13:12:33.190Z,42.40
2023-05-07T13:15:00.216Z,42.20
2023-05-07T13:17:27.494Z,41.80
2023-05-07T13:19:54.682Z,41.20
2023-05-07T13:22:21.535Z,40.80
2023-05-07T13:24:48.321Z,40.40
2023-05-07T13:27:15.147Z,40.10
2023-05-07T13:29:41.950Z,40.40
2023-05-07T13:32:08.782Z,39.30
2023-05-07T13:34:35.727Z,39.00
2023-05-07T13:37:02.514Z,39.00
2023-05-07T13:39:29.368Z,39.40
2023-05-07T13:41:56.279Z,38.50
2023-05-07T13:44:23.126Z,38.60
2023-05-07T13:46:49.922Z,38.50
2023-05-07T13:49:16.801Z,38.60
2023-05-07T13:51:43.599Z,38.20
2023-05-07T13:54:10.480Z,38.00
2023-05-07T13:56:37.421Z,37.80
2023-05-07T13:59:04.307Z,37.40
2023-05-07T14:01:32.006Z,37.20
2023-05-07T14:04:00.472Z,36.90
2023-05-07T14:06:27.487Z,36.90
2023-05-07T14:08:54.313Z,36.80
2023-05-07T14:11:21.799Z,37.00
2023-05-07T14:13:48.617Z,36.80
2023-05-07T14:16:16.205Z,36.80
2023-05-07T14:18:42.975Z,36.60
2023-05-07T14:21:10.853Z,36.60
2023-05-07T14:23:37.839Z,36.20
2023-05-07T14:26:04.775Z,36.20
2023-05-07T14:28:32.091Z,36.10
2023-05-07T14:30:59.145Z,36.00
2023-05-07T14:33:26.228Z,35.80
2023-05-07T14:35:53.024Z,35.70
2023-05-07T14:38:20.620Z,35.80
2023-05-07T14:40:47.475Z,35.60
2023-05-07T14:43:14.264Z,35.50
2023-05-07T14:45:41.270Z,35.70
2023-05-07T14:48:10.293Z,35.90
2023-05-07T14:50:37.409Z,36.00
2023-05-07T14:53:04.874Z,36.00
2023-05-07T14:55:33.428Z,36.00
2023-05-07T14:58:01.349Z,36.20
2023-05-07T15:00:29.168Z,36.30
2023-05-07T15:03:03.193Z,36.40
2023-05-07T15:05:30.071Z,36.40
2023-05-07T15:07:57.534Z,36.40
2023-05-07T15:10:24.758Z,36.50
2023-05-07T15:12:51.703Z,36.70
2023-05-07T15:15:18.542Z,36.70
2023-05-07T15:17:45.415Z,36.90
2023-05-07T15:20:12.328Z,36.90
2023-05-07T15:22:39.361Z,37.10
2023-05-07T15:25:06.686Z,37.20
2023-05-07T15:27:33.546Z,37.30
2023-05-07T15:30:00.333Z,37.50
2023-05-07T15:32:27.459Z,37.60
2023-05-07T15:34:54.272Z,37.90
2023-05-07T15:37:21.117Z,38.20
2023-05-07T15:39:47.965Z,38.80
2023-05-07T15:42:14.769Z,39.30
2023-05-07T15:44:42.351Z,39.40
2023-05-07T15:47:09.234Z,40.10
2023-05-07T15:49:36.171Z,41.00
2023-05-07T15:52:03.114Z,41.60
2023-05-07T15:54:30.385Z,42.30
2023-05-07T15:56:57.274Z,42.80
2023-05-07T15:59:24.185Z,43.40
2023-05-07T16:01:51.394Z,43.90
2023-05-07T16:04:18.494Z,44.50
2023-05-07T16:06:47.380Z,45.00
2023-05-07T16:09:14.713Z,45.30
2023-05-07T16:11:41.593Z,45.80
2023-05-07T16:14:08.880Z,46.30
2023-05-07T16:16:37.958Z,46.50
2023-05-07T16:19:04.825Z,46.90
2023-05-07T16:21:32.791Z,46.80
2023-05-07T16:23:59.790Z,47.10
2023-05-07T16:26:26.838Z,47.50
2023-05-07T16:28:53.802Z,48.20
2023-05-07T16:31:20.916Z,48.00
2023-05-07T16:33:47.709Z,48.80
2023-05-07T16:36:15.054Z,49.10
2023-05-07T16:38:42.283Z,49.40
2023-05-07T16:41:09.900Z,49.70
2023-05-07T16:43:37.278Z,50.10
2023-05-07T16:46:04.270Z,50.40
2023-05-07T16:48:31.171Z,50.90
2023-05-07T16:50:58.837Z,51.10
2023-05-07T16:53:26.177Z,51.50
2023-05-07T16:55:56.390Z,51.80
2023-05-07T16:58:23.356Z,52.00
2023-05-07T17:00:51.252Z,52.10
2023-05-07T17:03:19.292Z,52.60
2023-05-07T17:05:46.592Z,52.90
2023-05-07T17:08:13.936Z,53.30
2023-05-07T17:10:41.512Z,53.60
2023-05-07T17:13:08.457Z,53.70
2023-05-07T17:15:35.605Z,54.30
2023-05-07T17:18:02.534Z,54.30
2023-05-07T17:20:29.368Z,54.90
2023-05-07T17:22:56.243Z,55.40
2023-05-07T17:25:23.544Z,55.10
2023-05-07T17:27:50.701Z,55.10
2023-05-07T17:30:19.011Z,55.70
2023-05-07T17:32:45.904Z,56.20
2023-05-07T17:35:12.841Z,56.40
2023-05-07T17:37:40.100Z,56.10
2023-05-07T17:40:07.595Z,56.60
2023-05-07T17:42:34.466Z,56.50
2023-05-07T17:45:01.291Z,56.80
2023-05-07T17:49:55.706Z,57.30
2023-05-07T17:52:22.585Z,57.40
2023-05-07T17:57:16.698Z,57.90
2023-05-07T17:59:43.659Z,58.40
2023-05-07T18:02:10.581Z,58.40
2023-05-07T18:04:37.359Z,58.60
2023-05-07T18:07:04.304Z,58.40
2023-05-07T18:09:31.089Z,58.60
2023-05-07T18:11:57.885Z,58.90
2023-05-07T18:14:26.377Z,58.80
2023-05-07T18:16:54.287Z,58.60
2023-05-07T18:19:21.401Z,58.80
2023-05-07T18:21:49.053Z,59.50
2023-05-07T18:24:16.259Z,59.70
2023-05-07T18:26:43.096Z,59.90
2023-05-07T18:29:09.884Z,60.10
2023-05-07T18:31:38.009Z,60.20
2023-05-07T18:34:06.576Z,60.40
2023-05-07T18:36:33.532Z,60.50
2023-05-07T18:39:01.614Z,60.60
2023-05-07T18:41:28.510Z,60.90
2023-05-07T18:43:55.775Z,61.00
2023-05-07T18:46:22.795Z,61.20
2023-05-07T18:48:49.847Z,61.30
2023-05-07T18:51:16.776Z,61.30
2023-05-07T18:53:43.908Z,61.50
2023-05-07T18:56:10.842Z,61.70
2023-05-07T18:58:38.129Z,61.90
2023-05-07T19:01:08.763Z,62.00
2023-05-07T19:03:35.949Z,62.00
2023-05-07T19:06:04.257Z,62.00
2023-05-07T19:08:31.342Z,62.10
2023-05-07T19:10:58.575Z,62.10
2023-05-07T19:13:27.533Z,62.30
2023-05-07T19:15:55.141Z,62.30
2023-05-07T19:18:22.177Z,62.40
2023-05-07T19:20:52.010Z,62.50
2023-05-07T19:23:21.511Z,62.40
2023-05-07T19:25:49.108Z,62.20
2023-05-07T19:28:16.488Z,62.20
2023-05-07T19:30:43.459Z,62.40
2023-05-07T19:33:10.873Z,62.50
2023-05-07T19:35:38.092Z,62.70
2023-05-07T19:38:06.109Z,62.80
2023-05-07T19:40:33.140Z,63.00
2023-05-07T19:43:00.413Z,63.00
2023-05-07T19:45:27.335Z,63.10
2023-05-07T19:47:54.301Z,63.10
2023-05-07T19:50:22.209Z,63.10
2023-05-07T19:52:49.292Z,63.20
2023-05-07T19:55:16.171Z,63.20
2023-05-07T19:57:43.580Z,63.30
2023-05-07T20:00:11.206Z,63.30
2023-05-07T20:02:41.250Z,63.40
2023-05-07T20:05:08.646Z,63.40
2023-05-07T20:07:35.808Z,63.40
2023-05-07T20:10:02.858Z,63.50
2023-05-07T20:12:29.743Z,63.60
2023-05-07T20:14:56.617Z,63.70
2023-05-07T20:17:23.769Z,63.80
2023-05-07T20:19:50.737Z,63.90
2023-05-07T20:22:17.631Z,63.90
2023-05-07T20:24:44.580Z,64.00
2023-05-07T20:27:11.575Z,64.10
2023-05-07T20:29:38.520Z,64.30
2023-05-07T20:32:05.757Z,64.30
2023-05-07T20:34:32.716Z,64.30
2023-05-07T20:37:00.364Z,64.50
2023-05-07T20:39:27.386Z,64.60
2023-05-07T20:41:54.352Z,64.60
2023-05-07T20:44:21.252Z,64.60
2023-05-07T20:46:48.114Z,64.50
2023-05-07T20:49:15.590Z,64.50
2023-05-07T20:51:42.463Z,64.80
2023-05-07T20:54:09.294Z,64.80
2023-05-07T20:56:36.087Z,64.70
2023-05-07T20:59:02.910Z,64.70
2023-05-07T21:01:29.835Z,64.80
2023-05-07T21:03:56.930Z,64.80
2023-05-07T21:06:23.929Z,64.90
2023-05-07T21:08:50.710Z,64.90
2023-05-07T21:11:18.114Z,65.00
2023-05-07T21:13:45.003Z,64.90
2023-05-07T21:16:12.040Z,65.10
2023-05-07T21:18:38.990Z,65.10
2023-05-07T21:21:10.328Z,65.10
2023-05-07T21:23:37.465Z,65.50
2023-05-07T21:26:04.484Z,65.20
2023-05-07T21:28:31.302Z,65.20
2023-05-07T21:30:58.174Z,65.30
2023-05-07T21:33:25.044Z,65.40
2023-05-07T21:35:51.889Z,65.40
2023-05-07T21:38:18.911Z,65.50
2023-05-07T21:40:45.975Z,65.60
2023-05-07T21:43:12.814Z,65.60
2023-05-07T21:45:40.975Z,65.50
2023-05-07T21:48:07.981Z,65.60
2023-05-07T21:50:34.928Z,65.60
2023-05-07T21:53:02.044Z,65.60
2023-05-07T21:55:28.843Z,65.70
2023-05-07T21:58:04.961Z,65.60
2023-05-07T22:00:33.098Z,65.80
2023-05-07T22:03:00.395Z,66.00
2023-05-07T22:05:27.539Z,65.90
2023-05-07T22:07:54.449Z,66.00
2023-05-07T22:10:23.019Z,66.00
2023-05-07T22:12:50.204Z,66.00
2023-05-07T22:15:17.353Z,66.00
2023-05-07T22:17:44.346Z,66.10
2023-05-07T22:20:12.078Z,66.20
2023-05-07T22:22:53.059Z,66.30
2023-05-07T22:25:21.270Z,66.80
2023-05-07T22:27:48.818Z,66.30
2023-05-07T22:30:16.228Z,66.30
2023-05-07T22:32:43.788Z,66.30
2023-05-07T22:35:10.742Z,66.40
2023-05-07T22:37:37.883Z,66.40
2023-05-07T22:40:05.459Z,66.50
2023-05-07T22:42:32.332Z,66.40
2023-05-07T22:44:59.300Z,66.50
2023-05-07T22:47:29.628Z,66.50
2023-05-07T22:49:56.574Z,66.80
2023-05-07T22:52:23.518Z,66.60
2023-05-07T22:54:50.340Z,66.50
2023-05-07T22:57:17.145Z,66.60
2023-05-07T22:59:43.910Z,66.60
2023-05-07T23:02:10.694Z,66.70
2023-05-07T23:04:37.536Z,66.70
2023-05-07T23:07:04.327Z,66.80
2023-05-07T23:09:31.207Z,66.80
2023-05-07T23:11:57.964Z,66.80
2023-05-07T23:14:24.812Z,66.90
2023-05-07T23:16:51.636Z,67.00
2023-05-07T23:19:18.625Z,66.90
2023-05-07T23:21:45.509Z,66.80
2023-05-07T23:24:12.534Z,66.90
2023-05-07T23:26:39.344Z,67.00
2023-05-07T23:29:06.163Z,66.90
2023-05-07T23:31:33.146Z,67.00
2023-05-07T23:33:59.996Z,67.00
2023-05-07T23:36:26.869Z,67.00
2023-05-07T23:38:53.803Z,67.70
2023-05-07T23:41:20.996Z,67.00
2023-05-07T23:43:47.833Z,67.00
2023-05-07T23:46:14.705Z,67.00
2023-05-07T23:48:41.520Z,67.00
2023-05-07T23:51:08.403Z,66.90
2023-05-07T23:53:35.938Z,67.00
2023-05-07T23:56:02.715Z,66.90
2023-05-07T23:58:29.533Z,67.00
